Pagrindinis puslapis
METAR-TAF:

METAR-TAF

Oro uostai :

Hawarden, Velsas

platuma: 53-10N, ilguma: 002-59W, Aukštis: 10 m

Dabartinis oras

Ataskaita buvo paskelbta 4 valandos ir 22 minutes, ne 14:50 UTC
Vėjas 10 kt iš Pietų/Pietryčių
Temperatūra 13°C
Drėgmė 62%
Slėgis 1017 hPa
Matomumas 10 km arba daugiau
Mažai debesys ne aukštis 1800 ft
Su prošvaistėmis ne aukštis 4200 ft

METAR: EGNR 041450Z 16010KT 9999 FEW018 BKN042 13/06 Q1017

Laikas: 20:12 (19:12 UTC)

Prognozė

Ataskaita buvo paskelbta 5 valandos ir 12 minutes, ne 14:00 UTC
Prognozė galioja nuo 04 metu 15 UTC su 04 metu 18 UTC
Vėjas 9 kt iš Pietų
Matomumas 10 km arba daugiau
Išsisklaidę debesys ne aukštis 2000 ft

TAF: EGNR 041400Z 0415/0418 17009KT 9999 SCT020

Orai ataskaitas ir orų prognozės (METAR, TAF).

turimą stotys yra geltonos ir raudonos taškus žemėlapyje.

Perkelti pele per norėdami pamatyti stoties vardą.

Tada spustelėkite, norėdami matyti oro stebėjimo ir prognozės.

Norėdami pakeisti žemėlapį: spustelėkite ant žalios mygtukų su juodo kryžiaus žemyn,; žalią mygtuką su brūkšneliu, jei norite nutolinti; arba žalių rodyklių gretimoms žemėlapius.


METAR-TAF: